South Palm Beach, Florida
Current Conditions -  °F | °C
As of 12:53 PM on Saturday 20 Dec 2014 (Local Time) from KPBI Reporting Station
Broken Clouds Broken Clouds  
Wind Chill: 25°   Ceiling: 5000
Heat Index: 26°   Visibility: 10mi
Dew Point: 16°   Wind: 10mph
Humidity: 58%   Direction: 140°SE
Pressure: 30.05"   Gusts: NA
Location:  26.6941°N, 80.0379°W
Report Text: KPBI 201753Z 14009KT 10SM SCT040 BKN050 BKN250 25/16 A3005 RMK AO2 SLP177 T02500161 10261 20144 58020
Loading
Personal Weather Stations






























Interactive Weather Map New forecast layout! Learn more

10-Day Weather Forecast

Advertisements
Track Severe Weather on mobile